Chewsville, MD (21721)

8:47 AM EST on February 09, 2016 (GMT -0500)
Robinwood | | Change Station
CLOSE
Current Station
Personal Weather Station
Location: Hagerstown, MD
Elevation: 545 ft
Nearby Weather Stations
Active Advisory: Winter Weather Advisory Active Notice: Public Information Statement

Elev 545 ft 39.63 °N, 77.67 °W | Updated 7 minutes ago

Snow
Snow
32.3 °F
Feels Like 32 °F
N
0.0
Wind Variable Wind from NE
Gusts 1.0 mph

Today
High -- | Low -- °F
--% Chance of Precip.
Yesterday
High -- | Low -- °F
Precip. -- in
Pressure 29.56 in
Visibility 0.5 miles
Clouds Overcast 300 ft
Windchill 32 °F
Dew Point 31 °F
Humidity 93%
Rainfall 0.02 in
Snow Depth Not available.
7:10 AM 5:39 PM
New Moon, 1% visible
SPECI KHGR 091314Z 00000KT 1/2SM -SN FG OVC003 01/00 A2956 RMK AO2 P0000 T00060000
Pressure 29.56 in
Visibility 0.5 miles
Clouds Overcast 300 ft
Windchill 32 °F
Dew Point 31 °F
Humidity 93%
Rainfall 0.02 in
Snow Depth Not available.
7:10 AM 5:39 PM
New Moon, 1% visible
SPECI KHGR 091314Z 00000KT 1/2SM -SN FG OVC003 01/00 A2956 RMK AO2 P0000 T00060000

10-Day Weather Forecast

Almanac

Astronomy

Feb. 09, 2016 Rise Set
Actual Time
Civil Twilight
Nautical Twilight
Astronomical Twilight
Moon
Length of Visible Light
Length of Day
Tomorrow will be .
, % of the Moon is Illuminated

Today's Extremes

State Highs State Lows

Community

WunderPhotos

Upload Photos

1,891,591 photos uploaded!

WunderBlog® & News

Nearby

Air Quality

  Air Quality AQ Index Pollutant
Not available.

Snow Depth

Station Depth Elevation

Earthquake Activity

City Distance Mag. Time & Date
Minimum magnitude displayed is 2.5.

Coastal Water Temperatures

Place Temperature

Stations

Nearby Weather Stations

Station Location Temp. Windchill Dew Point Humidity Wind Precip. Elev Updated Type
                   

Watches & Warnings

Winter Weather Advisory
Issued: 7:55 AM EST Feb. 9, 2016 – National Weather Service

... Winter Weather Advisory remains in effect until midnight tonight...

* precipitation type... snow.

* Accumulations... snow accumulation of 1 to 3 inches... except 3
to 5 inches in Washington County.

* Timing... through this evening.

* Impacts... snow covered roads and travel disruptions.

* Winds... northwest 5 to 10 mph.

* Temperatures... lower 30s.

Precautionary/preparedness actions...

A Winter Weather Advisory for snow means that periods of snow
will cause primarily travel difficulties. Be prepared for snow
covered roads and limited visibilities... and use caution while
driving.